Terminal Aerodrome Forecast
Issued by NWS

Home | Current Version | Previous Version | Text Only | Print | Product List | Glossary On
Versions: 1 2 3 4 5 6 7 8 9 10 11 12 13 14 15
444
FTUS41 KBTV 291410 AAA
TAFRUT
TAF AMD
KRUT 291410Z 2914/3012 00000KT P6SM OVC006
      TEMPO 2914/2916 SCT006 BKN015
     FM291600 02005KT P6SM VCSH SCT025 BKN050
     FM292100 34007KT P6SM SCT045 BKN200
     FM300000 VRB03KT P6SM SCT250
      AMD LTD TO CLD VIS AND WIND=

USA.gov is the U.S. government's official web portal to all federal, state and local government web resources and services.